• Join FlightAware (Why Join?)
  • Login
  • US Flag 
03:32PM EDT


 

Airport Tracker/Info


-or-


 

Live Flight TrackerFlight Track Log ✈ N731JP ✈ 01-Sep-2013 ✈ KARB - KPBX

Flight Track Log - Related Links

Times and Time Zones

All times are in EDT time to prevent confusion due to time zone crossing. See the N731JP flight status page for this flight to view local times or setup timezone preferences in your user account.

Time Position Orientation Groundspeed Altitude Reporting Facility
EDT Latitude Longitude Course Direction KTS MPH feet Rate Location/Type
11:37AM 42.2472 -83.6911 65° Northeast 127 146 2,400  Level Cleveland Center
11:38AM 42.2714 -83.6475 53° Northeast 140 161 3,500 960 Climbing Cleveland Center
11:39AM 42.2703 -83.6081 92° East 131 151 4,400 720 Climbing Cleveland Center
11:40AM 42.2328 -83.6119 184° South 143 165 5,000 240 Climbing Cleveland Center
11:41AM 42.1867 -83.6153 183° South 170 196 5,000  Level Cleveland Center
11:42AM 42.1344 -83.6186 183° South 177 204 5,000  Level Cleveland Center
11:43AM 42.0783 -83.6186 180° South 186 214 5,000  Level Cleveland Center
11:44AM 42.0367 -83.6139 175° South 186 214 5,000 240 Level Cleveland Center
11:46AM 41.9085 -83.5200 149° Southeast  Level FlightAware Approximate
11:53AM 41.3539 -83.2688 171° South  Level FlightAware Approximate
11:54AM 41.2698 -83.2516 171° South  Level FlightAware Approximate
11:55AM 41.1857 -83.2344 171° South  Level FlightAware Approximate
11:56AM 41.1016 -83.2173 171° South  Level FlightAware Approximate
11:57AM 41.0175 -83.2002 171° South  Level FlightAware Approximate
11:58AM 40.9332 -83.1850 172° South  Level FlightAware Approximate
11:58AM 41.3542 -83.4794 172° South 171 197 9,000  Level Cleveland Center
11:59AM 40.8804 -83.1755 172° South  Level FlightAware Approximate
11:59AM 41.3064 -83.4747 176° South 176 203 9,000  Level Cleveland Center
12:00PM 40.8275 -83.1661 172° South  Level FlightAware Approximate
12:00PM 41.2586 -83.4642 171° South 181 208 9,000  Level Cleveland Center
12:01PM 40.7747 -83.1566 172° South  Level FlightAware Approximate
12:01PM 41.2108 -83.4567 173° South 181 208 9,000  Level Cleveland Center
12:02PM 40.7219 -83.1472 172° South  Level FlightAware Approximate
12:02PM 41.1633 -83.4433 168° South 181 208 9,000  Level Cleveland Center
12:03PM 40.6691 -83.1378 172° South  Level FlightAware Approximate
12:03PM 41.1133 -83.4358 174° South 181 208 9,000  Level Cleveland Center
12:04PM 41.0719 -83.4228 167° South 181 208 9,000  Level Cleveland Center
12:05PM 41.0222 -83.4097 169° South 181 208 9,000  Level Cleveland Center
12:06PM 40.9744 -83.4050 176° South 181 208 9,000  Level Cleveland Center
12:07PM 40.9269 -83.3892 166° South 181 208 9,000  Level Cleveland Center
12:08PM 40.8792 -83.3761 168° South 181 208 9,000  Level Cleveland Center
12:09PM 40.8328 -83.3614 166° South 179 206 9,000  Level Indianapolis Center
12:10PM 40.7814 -83.3481 169° South 180 207 9,000  Level Indianapolis Center
12:11PM 40.7306 -83.3353 169° South 183 211 9,000  Level Indianapolis Center
12:12PM 40.6808 -83.3217 168° South 182 209 9,000  Level Indianapolis Center
12:13PM 40.6306 -83.3078 168° South 184 212 9,000  Level Indianapolis Center
12:14PM 40.5797 -83.2953 169° South 186 214 9,000  Level Indianapolis Center
12:15PM 40.5292 -83.2814 168° South 185 213 9,000  Level Indianapolis Center
12:16PM 40.4861 -83.2742 173° South 185 213 9,000  Level Indianapolis Center
12:17PM 40.4411 -83.2611 168° South 183 211 9,000  Level Indianapolis Center
12:18PM 40.3922 -83.2475 168° South 183 211 9,000  Level Indianapolis Center
12:19PM 40.3306 -83.2317 169° South 182 209 9,000  Level Indianapolis Center
12:20PM 40.2792 -83.2206 171° South 182 209 9,000  Level Indianapolis Center
12:21PM 40.2342 -83.2075 168° South 184 212 9,000  Level Indianapolis Center
12:22PM 40.1847 -83.1967 170° South 181 208 9,000  Level Indianapolis Center
12:23PM 40.1356 -83.1831 168° South 181 208 9,000  Level Indianapolis Center
12:24PM 40.0906 -83.1703 168° South 181 208 9,000  Level Indianapolis Center
12:25PM 40.0394 -83.1564 168° South 186 214 9,000  Level Indianapolis Center
12:26PM 39.9861 -83.1422 168° South 185 213 9,000  Level Indianapolis Center
12:27PM 39.9389 -83.1319 171° South 186 214 9,000  Level Indianapolis Center
12:28PM 39.9167 -83.1233 163° South 187 215 9,000  Level Indianapolis Center
12:28PM 39.8839 -83.1147 169° South 184 212 9,000  Level Indianapolis Center
12:29PM 39.8325 -83.1008 168° South 185 213 9,000  Level Indianapolis Center
12:30PM 39.7794 -83.0869 169° South 186 214 9,000  Level Indianapolis Center
12:31PM 39.7300 -83.0761 170° South 184 212 9,000  Level Indianapolis Center
12:32PM 39.7144 -83.0706 165° South 184 212 9,000  Level Indianapolis Center
12:33PM 39.6636 -83.0581 169° South 184 212 9,000  Level Indianapolis Center
12:34PM 39.6031 -83.0453 171° South 184 212 9,000  Level Indianapolis Center
12:35PM 39.5525 -83.0347 171° South 183 211 9,000  Level Indianapolis Center
12:36PM 39.5022 -83.0225 169° South 185 213 9,000  Level Indianapolis Center
12:37PM 39.4511 -83.0111 170° South 184 212 9,000  Level Indianapolis Center
12:38PM 39.4003 -83.0000 170° South 185 213 9,000  Level Indianapolis Center
12:39PM 39.3500 -82.9903 171° South 184 212 9,000  Level Indianapolis Center
12:40PM 39.2994 -82.9800 171° South 183 211 9,000  Level Indianapolis Center
12:41PM 39.2486 -82.9711 172° South 184 212 9,000  Level Indianapolis Center
12:42PM 39.1989 -82.9603 170° South 183 211 9,000  Level Indianapolis Center
12:43PM 39.1389 -82.9464 170° South 183 211 9,100  Climbing Indianapolis Center
12:44PM 39.0872 -82.9336 169° South 188 216 9,000 -60 Descending Indianapolis Center
12:45PM 39.0356 -82.9194 168° South 189 217 9,000  Level Indianapolis Center
12:46PM 38.9839 -82.9069 169° South 189 217 9,000  Level Indianapolis Center
12:47PM 38.9314 -82.8950 170° South 192 221 9,000  Level Indianapolis Center
12:48PM 38.8800 -82.8806 168° South 190 219 9,000  Level Indianapolis Center
12:49PM 38.8278 -82.8681 169° South 192 221 9,000  Level Indianapolis Center
12:50PM 38.7764 -82.8558 169° South 187 215 9,000  Level Indianapolis Center
12:51PM 38.7247 -82.8444 170° South 188 216 9,000  Level Indianapolis Center
12:52PM 38.6725 -82.8306 168° South 190 219 9,000  Level Indianapolis Center
12:53PM 38.6097 -82.8169 170° South 189 217 9,000  Level Indianapolis Center
12:54PM 38.5575 -82.8039 169° South 190 219 9,000  Level Indianapolis Center
12:55PM 38.5064 -82.7925 170° South 186 214 9,000  Level Indianapolis Center
12:56PM 38.4539 -82.7822 171° South 190 219 9,000  Level Indianapolis Center
12:57PM 38.4019 -82.7714 171° South 189 217 9,000 -120 Level Indianapolis Center
12:58PM 38.3492 -82.7603 171° South 191 220 8,800 -420 Descending Indianapolis Center
12:59PM 38.2939 -82.7492 171° South 199 229 8,200 -540 Descending Indianapolis Center
01:00PM 38.2397 -82.7381 171° South 199 229 7,800 -480 Descending Indianapolis Center
01:01PM 38.1850 -82.7258 170° South 199 229 7,300 -480 Descending Indianapolis Center
01:02PM 38.1308 -82.7164 172° South 198 228 6,900 -180 Descending Indianapolis Center
01:03PM 38.0694 -82.7033 170° South 192 221 7,000 -180 Climbing Indianapolis Center
01:04PM 38.0203 -82.6933 171° South 182 209 6,600 -480 Descending Indianapolis Center
01:05PM 37.9658 -82.6806 170° South 193 222 6,100 -600 Descending Indianapolis Center
01:06PM 37.9136 -82.6700 171° South 192 221 5,500 -600 Descending Indianapolis Center